Terminal Aerodrome Forecast
Issued by NWS

Home | Current Version | Previous Version | Text Only | Print | Product List | Glossary On
Versions: 1 2 3 4 5 6 7 8 9 10 11 12 13 14 15
000
FTUS43 KDVN 250520
TAFBRL
TAF
KBRL 250520Z 2506/2606 18004KT P6SM BKN200
     FM251200 16007KT 6SM BR SCT050 OVC200
      TEMPO 2513/2517 4SM TSRA BR OVC025CB
     FM251700 18012G20KT P6SM BKN050 PROB30 2517/2521 3SM TSRA BR
      BKN035CB
     FM252100 20011KT P6SM VCTS BKN035CB=

USA.gov is the U.S. government's official web portal to all federal, state and local government web resources and services.